createdAt,value
2022-08-03T00:00:56.050Z,65.28
2022-08-03T00:06:04.337Z,65.05
2022-08-03T00:11:08.019Z,65.53
2022-08-03T00:16:11.673Z,65.77
2022-08-03T00:21:15.894Z,65.89
2022-08-03T00:26:18.707Z,66.37
2022-08-03T00:31:39.714Z,66.74
2022-08-03T00:36:45.560Z,66.59
2022-08-03T00:41:48.807Z,66.59
2022-08-03T00:46:51.635Z,66.88
2022-08-03T00:51:56.041Z,67.00
2022-08-03T00:57:00.301Z,67.00
2022-08-03T01:02:03.223Z,67.07
2022-08-03T01:07:14.165Z,67.45
2022-08-03T01:12:23.899Z,67.52
2022-08-03T01:17:30.295Z,67.54
2022-08-03T01:22:53.120Z,68.24
2022-08-03T01:27:59.325Z,68.19
2022-08-03T01:33:05.526Z,68.67
2022-08-03T01:38:12.664Z,68.52
2022-08-03T01:44:26.406Z,68.75
2022-08-03T01:48:44.688Z,68.92
2022-08-03T01:53:48.157Z,69.02
2022-08-03T01:58:51.289Z,68.58
2022-08-03T02:04:00.550Z,68.75
2022-08-03T02:09:04.957Z,68.72
2022-08-03T02:14:07.867Z,69.13
2022-08-03T02:19:12.735Z,69.45
2022-08-03T02:24:15.480Z,69.62
2022-08-03T02:29:21.669Z,69.61
2022-08-03T02:34:47.630Z,69.89
2022-08-03T02:39:53.269Z,69.58
2022-08-03T02:44:57.818Z,69.74
2022-08-03T02:50:02.923Z,70.05
2022-08-03T02:55:07.170Z,70.17
2022-08-03T03:00:11.174Z,70.16
2022-08-03T03:05:56.407Z,70.30
2022-08-03T03:10:39.083Z,70.46
2022-08-03T03:15:42.063Z,70.59
2022-08-03T03:20:46.725Z,70.53
2022-08-03T03:25:49.645Z,70.85
2022-08-03T03:30:53.463Z,70.62
2022-08-03T03:35:58.845Z,70.75
2022-08-03T03:41:01.604Z,70.78
2022-08-03T03:46:04.706Z,71.06
2022-08-03T03:51:09.212Z,70.91
2022-08-03T03:56:11.906Z,71.17
2022-08-03T04:01:15.015Z,70.87
2022-08-03T04:06:37.496Z,70.79
2022-08-03T04:11:42.862Z,70.87
2022-08-03T04:16:47.762Z,70.95
2022-08-03T04:21:53.808Z,70.80
2022-08-03T04:27:02.291Z,70.91
2022-08-03T04:32:06.881Z,70.91
2022-08-03T04:37:14.150Z,70.85
2022-08-03T04:42:17.608Z,70.84
2022-08-03T04:47:20.972Z,70.48
2022-08-03T04:52:25.424Z,70.44
2022-08-03T04:57:28.145Z,70.43
2022-08-03T05:02:31.873Z,70.20
2022-08-03T05:07:36.710Z,70.24
2022-08-03T05:12:39.590Z,69.91
2022-08-03T05:17:42.723Z,70.03
2022-08-03T05:22:46.796Z,69.54
2022-08-03T05:27:49.573Z,69.66
2022-08-03T05:32:53.393Z,69.29
2022-08-03T05:37:57.472Z,68.97
2022-08-03T05:43:00.879Z,69.24
2022-08-03T05:48:03.572Z,69.34
2022-08-03T05:53:07.687Z,69.27
2022-08-03T05:58:10.436Z,68.86
2022-08-03T06:03:14.110Z,68.89
2022-08-03T06:08:18.250Z,68.67
2022-08-03T06:13:20.981Z,68.11
2022-08-03T06:18:24.540Z,68.22
2022-08-03T06:23:52.879Z,67.70
2022-08-03T06:28:53.920Z,67.87
2022-08-03T06:34:32.618Z,67.50
2022-08-03T06:39:23.484Z,67.20
2022-08-03T06:44:26.881Z,66.95
2022-08-03T06:49:29.623Z,66.63
2022-08-03T06:54:36.395Z,66.33
2022-08-03T07:00:07.918Z,65.84
2022-08-03T07:05:02.801Z,65.38
2022-08-03T07:10:08.415Z,64.98
2022-08-03T07:15:20.490Z,64.94
2022-08-03T07:20:34.654Z,64.35
2022-08-03T07:25:38.720Z,64.26
2022-08-03T07:30:41.451Z,63.80
2022-08-03T07:35:44.374Z,63.46
2022-08-03T07:40:48.683Z,62.82
2022-08-03T07:45:51.394Z,62.11
2022-08-03T07:50:54.299Z,61.76
2022-08-03T07:55:58.562Z,61.33
2022-08-03T08:01:01.382Z,60.67
2022-08-03T08:06:04.174Z,60.40
2022-08-03T08:11:09.999Z,59.49
2022-08-03T08:16:13.006Z,59.55
2022-08-03T08:21:15.728Z,59.36
2022-08-03T08:26:20.819Z,58.85
2022-08-03T08:31:23.498Z,58.21
2022-08-03T08:36:26.197Z,58.13
2022-08-03T08:41:33.730Z,57.37
2022-08-03T08:46:36.711Z,56.45
2022-08-03T08:51:54.240Z,56.50
2022-08-03T08:57:21.072Z,56.22
2022-08-03T09:02:31.345Z,55.73
2022-08-03T09:07:34.452Z,55.06
2022-08-03T09:12:44.029Z,54.70
2022-08-03T09:17:50.902Z,54.57
2022-08-03T09:22:56.446Z,53.56
2022-08-03T09:28:08.398Z,53.18
2022-08-03T09:33:12.731Z,52.94
2022-08-03T09:38:16.598Z,52.45
2022-08-03T09:43:22.532Z,51.60
2022-08-03T09:48:26.700Z,51.32
2022-08-03T09:53:29.464Z,51.14
2022-08-03T09:58:33.486Z,50.62
2022-08-03T10:03:47.031Z,50.26
2022-08-03T10:09:08.811Z,49.61
2022-08-03T10:14:18.934Z,48.70
2022-08-03T10:19:22.293Z,48.51
2022-08-03T10:24:27.285Z,48.51
2022-08-03T10:29:37.073Z,48.34
2022-08-03T10:34:44.502Z,47.84
2022-08-03T10:39:54.329Z,47.49
2022-08-03T10:45:04.675Z,46.91
2022-08-03T10:50:08.632Z,46.38
2022-08-03T10:55:50.275Z,45.80
2022-08-03T11:00:54.858Z,45.31
2022-08-03T11:06:16.887Z,44.93
2022-08-03T11:11:28.432Z,44.18
2022-08-03T11:16:34.996Z,43.77
2022-08-03T11:21:57.401Z,43.15
2022-08-03T11:27:18.214Z,42.59
2022-08-03T11:32:58.151Z,42.29
2022-08-03T11:38:07.017Z,41.34
2022-08-03T11:43:11.168Z,40.87
2022-08-03T11:48:17.080Z,40.13
2022-08-03T11:53:20.368Z,39.11
2022-08-03T11:59:01.385Z,38.21
2022-08-03T12:03:49.148Z,37.60
2022-08-03T12:08:52.352Z,36.82
2022-08-03T12:14:43.823Z,35.90
2022-08-03T12:19:19.434Z,34.85
2022-08-03T12:24:22.158Z,33.77
2022-08-03T12:29:25.750Z,33.31
2022-08-03T12:34:48.183Z,31.51
2022-08-03T12:40:02.308Z,29.26
2022-08-03T12:45:21.822Z,28.31
2022-08-03T12:50:31.465Z,27.51
2022-08-03T12:56:04.344Z,27.69
2022-08-03T13:00:58.638Z,28.33
2022-08-03T13:06:02.786Z,28.34
2022-08-03T13:11:22.326Z,28.51
2022-08-03T13:16:25.696Z,28.52
2022-08-03T13:21:29.880Z,28.60
2022-08-03T13:26:32.977Z,28.33
2022-08-03T13:31:35.749Z,27.74
2022-08-03T13:37:10.312Z,28.51
2022-08-03T13:42:13.247Z,28.02
2022-08-03T13:47:16.243Z,27.87
2022-08-03T13:52:20.778Z,27.68
2022-08-03T13:58:04.253Z,27.34
2022-08-03T14:02:46.747Z,26.95
2022-08-03T14:07:50.857Z,26.17
2022-08-03T14:13:00.444Z,25.72
2022-08-03T14:18:03.471Z,24.90
2022-08-03T14:23:08.713Z,23.45
2022-08-03T14:28:11.740Z,17.99
2022-08-03T14:33:14.436Z,16.42
2022-08-03T14:38:19.411Z,14.39
2022-08-03T14:43:22.281Z,13.65
2022-08-03T14:50:29.093Z,15.93
2022-08-03T14:53:51.293Z,16.91
2022-08-03T14:58:54.267Z,20.16
2022-08-03T15:03:56.999Z,20.66
2022-08-03T15:09:21.124Z,18.83
2022-08-03T15:14:28.486Z,20.08
2022-08-03T15:20:01.244Z,23.73
2022-08-03T15:25:00.549Z,24.65
2022-08-03T15:30:10.112Z,24.48
2022-08-03T15:35:13.211Z,23.38
2022-08-03T15:40:17.480Z,23.68
2022-08-03T15:45:20.678Z,25.73
2022-08-03T15:50:23.609Z,26.69
2022-08-03T15:55:27.783Z,25.63
2022-08-03T16:00:33.528Z,23.91
2022-08-03T16:05:36.658Z,24.94
2022-08-03T16:10:40.919Z,25.32
2022-08-03T16:15:43.610Z,24.21
2022-08-03T16:20:46.760Z,24.88
2022-08-03T16:25:51.143Z,24.75
2022-08-03T16:30:53.836Z,23.87
2022-08-03T16:35:56.554Z,24.41
2022-08-03T16:41:00.631Z,25.51
2022-08-03T16:46:03.529Z,26.24
2022-08-03T16:51:06.233Z,26.33
2022-08-03T16:56:11.242Z,26.53
2022-08-03T17:01:22.246Z,26.25
2022-08-03T17:06:33.915Z,26.35
2022-08-03T17:11:43.994Z,26.69
2022-08-03T17:16:52.791Z,27.13
2022-08-03T17:22:04.242Z,27.22
2022-08-03T17:27:18.573Z,27.33
2022-08-03T17:32:34.695Z,27.05
2022-08-03T17:37:58.446Z,26.89
2022-08-03T17:44:14.078Z,27.56
2022-08-03T17:48:26.967Z,28.73
2022-08-03T17:53:30.831Z,29.62
2022-08-03T17:58:55.062Z,29.74
2022-08-03T18:04:02.727Z,30.47
2022-08-03T18:10:04.730Z,31.05
2022-08-03T18:14:57.264Z,31.26
2022-08-03T18:20:09.903Z,31.59
2022-08-03T18:25:19.026Z,31.53
2022-08-03T18:30:54.133Z,31.91
2022-08-03T18:35:58.497Z,32.83
2022-08-03T18:41:01.944Z,33.33
2022-08-03T18:46:07.941Z,33.80
2022-08-03T18:51:12.163Z,34.29
2022-08-03T18:56:35.607Z,34.47
2022-08-03T19:02:00.742Z,35.14
2022-08-03T19:07:08.198Z,35.70
2022-08-03T19:12:28.231Z,36.04
2022-08-03T19:17:41.362Z,36.60
2022-08-03T19:22:46.230Z,37.11
2022-08-03T19:27:49.612Z,37.42
2022-08-03T19:32:54.925Z,37.86
2022-08-03T19:37:59.777Z,38.74
2022-08-03T19:43:12.030Z,39.17
2022-08-03T19:48:22.236Z,39.20
2022-08-03T19:53:35.236Z,39.95
2022-08-03T19:58:39.347Z,40.51
2022-08-03T20:03:44.380Z,40.76
2022-08-03T20:08:51.745Z,41.19
2022-08-03T20:13:55.870Z,42.14
2022-08-03T20:19:00.568Z,42.57
2022-08-03T20:24:24.196Z,42.86
2022-08-03T20:29:42.758Z,43.19
2022-08-03T20:34:54.809Z,43.53
2022-08-03T20:39:58.363Z,45.10
2022-08-03T20:45:05.680Z,45.46
2022-08-03T20:50:16.553Z,45.57
2022-08-03T20:55:20.289Z,45.91
2022-08-03T21:00:42.905Z,46.19
2022-08-03T21:05:51.793Z,46.40
2022-08-03T21:10:57.656Z,46.73
2022-08-03T21:16:13.032Z,47.17
2022-08-03T21:21:19.831Z,47.03
2022-08-03T21:26:24.684Z,47.32
2022-08-03T21:31:28.019Z,47.92
2022-08-03T21:36:35.319Z,48.51
2022-08-03T21:41:39.283Z,48.39
2022-08-03T21:46:42.307Z,48.64
2022-08-03T21:51:46.594Z,49.26
2022-08-03T21:56:52.078Z,49.34
2022-08-03T22:01:58.636Z,49.73
2022-08-03T22:07:03.136Z,49.79
2022-08-03T22:12:06.818Z,49.73
2022-08-03T22:17:09.647Z,49.79
2022-08-03T22:22:15.325Z,49.56
2022-08-03T22:27:34.221Z,49.86
2022-08-03T22:32:38.419Z,49.90
2022-08-03T22:37:42.862Z,50.08
2022-08-03T22:42:49.368Z,50.21
2022-08-03T22:47:56.267Z,50.33
2022-08-03T22:53:00.599Z,50.72
2022-08-03T22:58:03.728Z,51.12
2022-08-03T23:03:07.402Z,51.33
2022-08-03T23:08:13.901Z,51.90
2022-08-03T23:13:17.775Z,51.85
2022-08-03T23:18:22.345Z,52.03
2022-08-03T23:23:26.545Z,52.24
2022-08-03T23:28:31.094Z,52.66
2022-08-03T23:33:34.321Z,52.91
2022-08-03T23:38:38.370Z,53.37
2022-08-03T23:43:52.293Z,53.53
2022-08-03T23:48:57.742Z,53.62
2022-08-03T23:54:11.241Z,54.00
2022-08-03T23:59:21.804Z,54.05
